createdAt,value
2023-02-07T00:01:13.914Z,46.87
2023-02-07T00:03:41.939Z,46.96
2023-02-07T00:06:13.713Z,46.68
2023-02-07T00:08:42.262Z,46.96
2023-02-07T00:11:17.151Z,46.64
2023-02-07T00:13:45.768Z,46.76
2023-02-07T00:16:14.529Z,46.56
2023-02-07T00:18:42.740Z,46.66
2023-02-07T00:21:14.378Z,46.62
2023-02-07T00:23:42.950Z,46.67
2023-02-07T00:26:12.041Z,46.67
2023-02-07T00:28:41.302Z,46.59
2023-02-07T00:31:12.157Z,46.51
2023-02-07T00:33:41.534Z,46.58
2023-02-07T00:36:14.432Z,46.45
2023-02-07T00:38:42.626Z,46.69
2023-02-07T00:41:15.174Z,46.69
2023-02-07T00:43:43.139Z,46.69
2023-02-07T00:46:11.437Z,46.68
2023-02-07T00:48:40.180Z,46.69
2023-02-07T00:51:09.737Z,46.75
2023-02-07T00:53:39.472Z,47.02
2023-02-07T00:56:07.943Z,46.98
2023-02-07T00:58:36.329Z,47.12
2023-02-07T01:01:04.765Z,47.19
2023-02-07T01:03:33.625Z,46.88
2023-02-07T01:06:01.582Z,46.80
2023-02-07T01:08:29.465Z,46.90
2023-02-07T01:11:04.234Z,46.63
2023-02-07T01:13:32.183Z,46.70
2023-02-07T01:16:00.889Z,46.68
2023-02-07T01:18:30.007Z,46.73
2023-02-07T01:20:58.216Z,46.54
2023-02-07T01:23:26.067Z,46.66
2023-02-07T01:25:53.917Z,46.81
2023-02-07T01:28:23.111Z,46.37
2023-02-07T01:30:50.995Z,46.66
2023-02-07T01:33:18.921Z,46.79
2023-02-07T01:35:47.120Z,46.74
2023-02-07T01:38:14.969Z,46.82
2023-02-07T01:40:43.049Z,46.72
2023-02-07T01:43:18.490Z,46.54
2023-02-07T01:45:47.946Z,46.62
2023-02-07T01:48:21.053Z,46.77
2023-02-07T01:50:52.424Z,46.66
2023-02-07T01:53:23.446Z,46.65
2023-02-07T01:55:55.169Z,46.63
2023-02-07T01:58:24.614Z,46.57
2023-02-07T02:00:55.922Z,46.63
2023-02-07T02:03:24.630Z,46.65
2023-02-07T02:05:54.846Z,46.65
2023-02-07T02:08:23.169Z,46.63
2023-02-07T02:11:02.659Z,46.44
2023-02-07T02:13:38.153Z,46.53
2023-02-07T02:16:18.465Z,46.15
2023-02-07T02:19:00.010Z,46.10
2023-02-07T02:22:01.794Z,45.80
2023-02-07T02:25:05.510Z,45.82
2023-02-07T02:27:51.328Z,46.04
2023-02-07T02:30:46.574Z,46.16
2023-02-07T02:33:23.482Z,46.07
2023-02-07T02:35:59.776Z,46.03
2023-02-07T02:43:00.246Z,46.01
2023-02-07T02:45:34.359Z,46.48
2023-02-07T02:48:03.435Z,46.27
2023-02-07T02:50:35.448Z,46.14
2023-02-07T02:53:03.576Z,46.45
2023-02-07T02:56:14.272Z,45.98
2023-02-07T02:58:59.990Z,46.03
2023-02-07T03:01:36.229Z,46.19
2023-02-07T03:04:31.263Z,45.70
2023-02-07T03:07:14.116Z,46.20
2023-02-07T03:10:27.121Z,46.00
2023-02-07T03:13:37.816Z,45.95
2023-02-07T03:16:45.937Z,45.72
2023-02-07T03:22:46.279Z,45.97
2023-02-07T03:25:38.992Z,45.65
2023-02-07T03:28:49.478Z,45.96
2023-02-07T03:31:20.971Z,46.11
2023-02-07T03:33:52.509Z,46.20
2023-02-07T03:36:25.016Z,45.83
2023-02-07T03:39:12.486Z,45.48
2023-02-07T03:41:54.399Z,46.07
2023-02-07T03:45:12.264Z,45.76
2023-02-07T03:48:28.692Z,45.79
2023-02-07T03:51:05.054Z,46.28
2023-02-07T03:53:41.235Z,46.14
2023-02-07T03:56:17.484Z,46.11
2023-02-07T03:59:04.463Z,46.01
2023-02-07T04:01:45.457Z,46.24
2023-02-07T04:04:28.438Z,46.43
2023-02-07T04:07:17.397Z,45.98
2023-02-07T04:10:17.479Z,46.31
2023-02-07T04:12:59.954Z,46.17
2023-02-07T04:15:43.299Z,46.06
2023-02-07T04:19:10.177Z,45.74
2023-02-07T04:21:23.915Z,46.37
2023-02-07T04:24:07.165Z,45.98
2023-02-07T04:26:35.179Z,46.41
2023-02-07T04:29:04.422Z,46.26
2023-02-07T04:31:32.528Z,46.47
2023-02-07T04:34:00.460Z,46.58
2023-02-07T04:36:29.747Z,46.60
2023-02-07T04:38:57.606Z,46.48
2023-02-07T04:41:25.641Z,46.60
2023-02-07T04:43:53.540Z,46.71
2023-02-07T04:46:22.851Z,46.71
2023-02-07T04:48:50.721Z,46.51
2023-02-07T04:51:18.587Z,46.58
2023-02-07T04:53:56.748Z,46.36
2023-02-07T04:56:32.804Z,46.43
2023-02-07T04:59:12.582Z,46.44
2023-02-07T05:01:53.652Z,46.30
2023-02-07T05:04:25.254Z,46.15
2023-02-07T05:06:54.714Z,46.37
2023-02-07T05:09:26.547Z,46.26
2023-02-07T05:11:59.288Z,46.36
2023-02-07T05:14:29.974Z,46.46
2023-02-07T05:17:05.592Z,46.16
2023-02-07T05:19:33.884Z,46.48
2023-02-07T05:22:05.796Z,46.40
2023-02-07T05:24:43.978Z,46.54
2023-02-07T05:27:19.690Z,46.68
2023-02-07T05:29:57.855Z,46.69
2023-02-07T05:32:44.973Z,46.38
2023-02-07T05:35:13.029Z,46.70
2023-02-07T05:37:40.902Z,46.67
2023-02-07T05:40:09.448Z,46.57
2023-02-07T05:42:37.441Z,46.68
2023-02-07T05:45:06.387Z,46.49
2023-02-07T05:47:36.010Z,46.27
2023-02-07T05:50:04.622Z,46.55
2023-02-07T05:52:34.774Z,46.48
2023-02-07T05:55:03.790Z,46.63
2023-02-07T05:57:31.876Z,46.35
2023-02-07T05:59:59.784Z,46.49
2023-02-07T06:02:27.840Z,46.52
2023-02-07T06:04:57.086Z,46.44
2023-02-07T06:07:27.314Z,46.48
2023-02-07T06:09:55.138Z,46.79
2023-02-07T06:12:24.051Z,46.77
2023-02-07T06:14:52.884Z,46.81
2023-02-07T06:17:24.616Z,46.63
2023-02-07T06:19:58.861Z,46.91
2023-02-07T06:22:29.850Z,46.58
2023-02-07T06:25:05.089Z,46.57
2023-02-07T06:27:33.149Z,46.68
2023-02-07T06:30:03.317Z,46.78
2023-02-07T06:32:36.106Z,46.79
2023-02-07T06:35:09.057Z,46.58
2023-02-07T06:37:37.276Z,46.61
2023-02-07T06:40:06.084Z,46.76
2023-02-07T06:42:38.378Z,46.72
2023-02-07T06:45:07.139Z,46.94
2023-02-07T06:47:34.985Z,46.53
2023-02-07T06:50:05.328Z,46.55
2023-02-07T06:52:38.524Z,46.41
2023-02-07T06:55:08.179Z,46.63
2023-02-07T06:57:36.117Z,46.28
2023-02-07T07:00:05.279Z,46.52
2023-02-07T07:02:33.472Z,46.77
2023-02-07T07:05:01.576Z,46.68
2023-02-07T07:07:29.456Z,46.74
2023-02-07T07:09:58.737Z,46.60
2023-02-07T07:12:27.179Z,46.66
2023-02-07T07:14:55.456Z,46.67
2023-02-07T07:17:26.782Z,46.55
2023-02-07T07:19:58.853Z,46.56
2023-02-07T07:22:27.126Z,46.61
2023-02-07T07:24:55.079Z,46.92
2023-02-07T07:27:26.735Z,47.27
2023-02-07T07:29:55.127Z,46.99
2023-02-07T07:32:33.715Z,47.18
2023-02-07T07:35:02.853Z,47.38
2023-02-07T07:37:31.052Z,47.15
2023-02-07T07:39:59.700Z,47.10
2023-02-07T07:42:28.952Z,47.20
2023-02-07T07:45:10.097Z,46.98
2023-02-07T07:47:38.043Z,46.83
2023-02-07T07:50:06.796Z,46.96
2023-02-07T07:52:38.020Z,46.89
2023-02-07T07:55:06.542Z,46.55
2023-02-07T07:57:36.362Z,46.67
2023-02-07T08:00:05.325Z,46.78
2023-02-07T08:02:41.915Z,47.11
2023-02-07T08:05:13.508Z,47.16
2023-02-07T08:07:42.655Z,46.91
2023-02-07T08:10:11.124Z,46.94
2023-02-07T08:12:42.601Z,46.93
2023-02-07T08:15:11.238Z,47.09
2023-02-07T08:17:39.280Z,46.99
2023-02-07T08:20:08.117Z,47.15
2023-02-07T08:22:36.468Z,47.24
2023-02-07T08:25:05.358Z,47.21
2023-02-07T08:27:33.501Z,47.18
2023-02-07T08:30:05.494Z,46.92
2023-02-07T08:32:33.405Z,47.02
2023-02-07T08:35:01.260Z,46.89
2023-02-07T08:37:29.182Z,46.92
2023-02-07T08:39:58.302Z,46.91
2023-02-07T08:42:26.085Z,46.83
2023-02-07T08:44:54.092Z,46.81
2023-02-07T08:47:25.818Z,46.53
2023-02-07T08:49:53.573Z,46.82
2023-02-07T08:52:21.453Z,46.93
2023-02-07T08:54:49.861Z,47.15
2023-02-07T08:57:20.059Z,47.25
2023-02-07T08:59:47.936Z,47.51
2023-02-07T09:02:15.945Z,47.57
2023-02-07T09:04:45.224Z,47.53
2023-02-07T09:07:13.106Z,48.02
2023-02-07T09:09:41.364Z,48.04
2023-02-07T09:12:10.312Z,48.21
2023-02-07T09:14:38.965Z,48.10
2023-02-07T09:17:07.782Z,47.68
2023-02-07T09:19:36.472Z,47.95
2023-02-07T09:22:06.389Z,47.50
2023-02-07T09:24:34.260Z,47.76
2023-02-07T09:27:02.257Z,47.60
2023-02-07T09:29:30.190Z,47.63
2023-02-07T09:31:57.979Z,47.60
2023-02-07T09:34:27.229Z,47.18
2023-02-07T09:36:55.253Z,47.12
2023-02-07T09:39:24.530Z,46.72
2023-02-07T09:42:05.460Z,45.85
2023-02-07T09:44:49.006Z,45.11
2023-02-07T09:47:20.179Z,46.21
2023-02-07T09:49:52.390Z,46.20
2023-02-07T09:52:23.626Z,46.24
2023-02-07T09:54:55.381Z,46.17
2023-02-07T09:57:28.481Z,45.65
2023-02-07T09:59:58.414Z,45.26
2023-02-07T10:02:32.384Z,45.88
2023-02-07T10:05:04.606Z,45.49
2023-02-07T10:07:35.486Z,44.50
2023-02-07T10:10:05.143Z,44.77
2023-02-07T10:12:51.693Z,43.11
2023-02-07T10:15:31.859Z,43.65
2023-02-07T10:18:19.572Z,42.53
2023-02-07T10:20:56.171Z,42.99
2023-02-07T10:23:36.949Z,42.95
2023-02-07T10:26:16.584Z,42.96
2023-02-07T10:29:01.138Z,41.94
2023-02-07T10:31:30.957Z,43.77
2023-02-07T10:34:04.960Z,43.68
2023-02-07T10:36:34.771Z,43.51
2023-02-07T10:39:09.940Z,42.69
2023-02-07T10:41:44.048Z,43.11
2023-02-07T10:44:14.791Z,43.38
2023-02-07T10:46:45.545Z,43.00
2023-02-07T10:49:25.072Z,41.63
2023-02-07T10:51:56.636Z,43.20
2023-02-07T10:54:24.923Z,43.12
2023-02-07T10:57:01.641Z,41.53
2023-02-07T10:59:40.530Z,40.74
2023-02-07T11:02:52.138Z,39.88
2023-02-07T11:05:35.274Z,39.58
2023-02-07T11:08:05.107Z,42.01
2023-02-07T11:10:37.402Z,41.24
2023-02-07T11:13:14.028Z,40.41
2023-02-07T11:15:50.147Z,40.45
2023-02-07T11:18:33.680Z,40.41
2023-02-07T11:21:01.781Z,42.08
2023-02-07T11:23:29.987Z,42.14
2023-02-07T11:25:58.236Z,41.83
2023-02-07T11:28:30.595Z,40.96
2023-02-07T11:31:04.006Z,41.30
2023-02-07T11:33:35.044Z,40.95
2023-02-07T11:36:05.508Z,41.38
2023-02-07T11:38:38.742Z,40.07
2023-02-07T11:41:07.815Z,40.85
2023-02-07T11:43:36.978Z,40.22
2023-02-07T11:46:10.660Z,39.63
2023-02-07T11:48:40.960Z,40.00
2023-02-07T11:51:10.739Z,40.04
2023-02-07T11:53:41.339Z,40.15
2023-02-07T11:56:23.967Z,37.40
2023-02-07T11:58:55.297Z,39.55
2023-02-07T12:01:26.449Z,40.05
2023-02-07T12:04:00.746Z,40.12
2023-02-07T12:06:36.123Z,38.61
2023-02-07T12:09:07.224Z,39.80
2023-02-07T12:11:40.298Z,38.40
2023-02-07T12:14:18.468Z,37.83
2023-02-07T12:16:51.130Z,38.28
2023-02-07T12:19:23.936Z,38.21
2023-02-07T12:21:58.651Z,37.92
2023-02-07T12:24:31.720Z,38.15
2023-02-07T12:27:02.976Z,36.65
2023-02-07T12:29:44.338Z,36.99
2023-02-07T12:32:23.941Z,37.76
2023-02-07T12:34:58.430Z,37.98
2023-02-07T12:37:32.115Z,38.51
2023-02-07T12:40:05.824Z,36.88
2023-02-07T12:42:40.367Z,36.98
2023-02-07T12:45:15.515Z,37.51
2023-02-07T12:47:57.097Z,36.27
2023-02-07T12:50:39.391Z,35.83
2023-02-07T12:53:22.136Z,36.21
2023-02-07T12:56:04.617Z,35.94
2023-02-07T12:58:44.178Z,35.78
2023-02-07T13:01:22.908Z,35.43
2023-02-07T13:04:07.164Z,35.67
2023-02-07T13:06:45.396Z,36.30
2023-02-07T13:09:20.667Z,36.67
2023-02-07T13:11:55.936Z,36.51
2023-02-07T13:14:32.580Z,35.01
2023-02-07T13:17:15.992Z,35.00
2023-02-07T13:19:53.342Z,35.81
2023-02-07T13:22:29.533Z,35.39
2023-02-07T13:24:58.924Z,37.01
2023-02-07T13:27:29.893Z,37.17
2023-02-07T13:29:57.929Z,36.49
2023-02-07T13:32:28.623Z,35.85
2023-02-07T13:35:00.051Z,35.33
2023-02-07T13:37:36.555Z,34.55
2023-02-07T13:40:20.123Z,35.42
2023-02-07T13:42:57.486Z,34.72
2023-02-07T13:45:36.476Z,35.15
2023-02-07T13:48:17.408Z,34.42
2023-02-07T13:50:53.126Z,34.70
2023-02-07T13:53:43.061Z,33.73
2023-02-07T13:56:33.472Z,35.63
2023-02-07T13:59:19.771Z,35.76
2023-02-07T14:01:50.935Z,35.38
2023-02-07T14:04:21.642Z,35.07
2023-02-07T14:07:11.649Z,33.14
2023-02-07T14:09:42.616Z,35.31
2023-02-07T14:12:20.296Z,33.18
2023-02-07T14:15:01.450Z,35.28
2023-02-07T14:17:58.945Z,32.97
2023-02-07T14:21:00.421Z,32.90
2023-02-07T14:23:58.725Z,32.64
2023-02-07T14:27:02.397Z,32.72
2023-02-07T14:29:56.764Z,34.11
2023-02-07T14:32:38.717Z,33.39
2023-02-07T14:35:28.036Z,34.99
2023-02-07T14:38:03.241Z,33.61
2023-02-07T14:40:37.691Z,33.58
2023-02-07T14:43:08.669Z,34.58
2023-02-07T14:45:38.124Z,34.63
2023-02-07T14:48:08.500Z,34.21
2023-02-07T14:50:36.870Z,34.46
2023-02-07T14:53:07.170Z,33.86
2023-02-07T14:55:43.245Z,33.97
2023-02-07T14:58:26.000Z,32.95
2023-02-07T15:00:59.228Z,33.98
2023-02-07T15:03:33.320Z,33.05
2023-02-07T15:06:04.736Z,34.34
2023-02-07T15:08:35.373Z,34.01
2023-02-07T15:11:06.456Z,33.68
2023-02-07T15:13:42.503Z,32.48
2023-02-07T15:16:16.956Z,32.52
2023-02-07T15:18:48.343Z,33.29
2023-02-07T15:21:19.487Z,33.26
2023-02-07T15:23:56.149Z,32.10
2023-02-07T15:26:24.014Z,33.71
2023-02-07T15:29:00.204Z,32.27
2023-02-07T15:31:29.055Z,33.61
2023-02-07T15:33:59.376Z,33.53
2023-02-07T15:36:32.108Z,33.28
2023-02-07T15:39:04.097Z,32.92
2023-02-07T15:41:32.028Z,33.51
2023-02-07T15:44:01.695Z,33.55
2023-02-07T15:46:46.117Z,30.99
2023-02-07T15:49:26.444Z,31.03
2023-02-07T15:51:56.125Z,33.30
2023-02-07T15:54:27.782Z,32.91
2023-02-07T15:57:00.361Z,32.59
2023-02-07T15:59:31.056Z,33.05
2023-02-07T16:02:01.637Z,33.10
2023-02-07T16:04:32.320Z,33.14
2023-02-07T16:07:03.719Z,33.03
2023-02-07T16:09:44.972Z,31.74
2023-02-07T16:12:33.722Z,31.71
2023-02-07T16:15:03.018Z,33.53
2023-02-07T16:17:48.748Z,31.39
2023-02-07T16:20:17.611Z,33.30
2023-02-07T16:22:46.561Z,33.28
2023-02-07T16:25:21.669Z,32.06
2023-02-07T16:27:52.217Z,33.24
2023-02-07T16:30:22.798Z,32.93
2023-02-07T16:32:50.777Z,33.24
2023-02-07T16:35:21.570Z,33.02
2023-02-07T16:37:49.664Z,33.37
2023-02-07T16:40:20.074Z,33.24
2023-02-07T16:42:47.893Z,33.09
2023-02-07T16:45:20.471Z,32.46
2023-02-07T16:47:48.824Z,33.30
2023-02-07T16:50:18.860Z,33.33
2023-02-07T16:52:47.310Z,33.45
2023-02-07T16:55:15.139Z,33.60
2023-02-07T16:57:45.927Z,33.19
2023-02-07T17:00:17.215Z,33.17
2023-02-07T17:02:45.252Z,33.82
2023-02-07T17:05:13.081Z,33.75
2023-02-07T17:07:40.922Z,34.06
2023-02-07T17:10:20.696Z,33.31
2023-02-07T17:12:50.258Z,34.18
2023-02-07T17:15:18.392Z,34.21
2023-02-07T17:17:46.270Z,34.16
2023-02-07T17:20:23.064Z,33.42
2023-02-07T17:22:51.180Z,34.39
2023-02-07T17:25:20.264Z,34.40
2023-02-07T17:27:49.620Z,34.05
2023-02-07T17:30:20.253Z,34.29
2023-02-07T17:32:48.454Z,34.66
2023-02-07T17:35:16.518Z,34.81
2023-02-07T17:37:44.640Z,34.87
2023-02-07T17:40:24.449Z,34.75
2023-02-07T17:42:54.206Z,34.80
2023-02-07T17:45:22.049Z,35.17
2023-02-07T17:47:49.923Z,35.35
2023-02-07T17:50:19.702Z,35.21
2023-02-07T17:52:48.025Z,35.24
2023-02-07T17:55:16.420Z,35.35
2023-02-07T17:57:44.804Z,35.35
2023-02-07T18:00:19.959Z,35.03
2023-02-07T18:02:48.530Z,35.43
2023-02-07T18:05:17.725Z,35.58
2023-02-07T18:07:46.976Z,35.50
2023-02-07T18:10:18.923Z,35.07
2023-02-07T18:12:47.201Z,35.44
2023-02-07T18:15:15.191Z,35.33
2023-02-07T18:17:47.427Z,35.37
2023-02-07T18:20:17.504Z,35.57
2023-02-07T18:22:45.520Z,35.62
2023-02-07T18:25:13.290Z,35.47
2023-02-07T18:27:41.545Z,35.69
2023-02-07T18:30:10.429Z,35.81
2023-02-07T18:32:38.997Z,35.81
2023-02-07T18:35:08.972Z,35.52
2023-02-07T18:37:37.024Z,35.65
2023-02-07T18:40:06.297Z,35.78
2023-02-07T18:42:34.182Z,36.02
2023-02-07T18:45:02.606Z,36.07
2023-02-07T18:47:32.465Z,36.14
2023-02-07T18:50:00.823Z,36.22
2023-02-07T18:52:30.623Z,36.11
2023-02-07T18:54:58.454Z,36.30
2023-02-07T18:57:26.430Z,36.59
2023-02-07T18:59:54.326Z,36.31
2023-02-07T19:02:22.701Z,36.36
2023-02-07T19:04:50.821Z,36.54
2023-02-07T19:07:18.615Z,36.47
2023-02-07T19:09:47.862Z,36.55
2023-02-07T19:12:15.867Z,36.67
2023-02-07T19:14:43.652Z,36.55
2023-02-07T19:17:11.568Z,36.72
2023-02-07T19:19:39.343Z,36.80
2023-02-07T19:22:07.149Z,36.82
2023-02-07T19:24:35.001Z,36.87
2023-02-07T19:27:04.972Z,37.15
2023-02-07T19:29:33.302Z,37.01
2023-02-07T19:32:04.790Z,37.02
2023-02-07T19:34:33.462Z,37.00
2023-02-07T19:37:02.225Z,36.75
2023-02-07T19:39:30.141Z,37.06
2023-02-07T19:41:57.983Z,37.14
2023-02-07T19:44:27.693Z,37.25
2023-02-07T19:46:55.902Z,37.24
2023-02-07T19:49:23.750Z,37.34
2023-02-07T19:51:51.884Z,37.19
2023-02-07T19:54:19.848Z,37.46
2023-02-07T19:56:50.296Z,37.59
2023-02-07T19:59:18.709Z,37.56
2023-02-07T20:01:47.997Z,37.45
2023-02-07T20:04:15.968Z,37.66
2023-02-07T20:06:43.772Z,37.61
2023-02-07T20:09:11.827Z,37.62
2023-02-07T20:11:39.650Z,37.56
2023-02-07T20:14:07.849Z,37.61
2023-02-07T20:16:38.703Z,37.56
2023-02-07T20:19:08.910Z,37.52
2023-02-07T20:21:38.082Z,37.60
2023-02-07T20:24:07.027Z,37.62
2023-02-07T20:26:37.730Z,37.70
2023-02-07T20:29:09.595Z,37.86
2023-02-07T20:31:38.588Z,37.99
2023-02-07T20:34:08.617Z,37.79
2023-02-07T20:36:41.488Z,37.95
2023-02-07T20:39:13.667Z,38.31
2023-02-07T20:41:47.404Z,38.08
2023-02-07T20:44:30.137Z,37.94
2023-02-07T20:47:08.015Z,38.01
2023-02-07T20:49:37.404Z,38.36
2023-02-07T20:52:05.622Z,38.32
2023-02-07T20:54:36.013Z,38.17
2023-02-07T20:57:04.295Z,38.35
2023-02-07T20:59:36.989Z,38.43
2023-02-07T21:02:08.061Z,38.33
2023-02-07T21:04:37.627Z,38.47
2023-02-07T21:07:06.290Z,38.54
2023-02-07T21:09:34.206Z,38.36
2023-02-07T21:12:02.601Z,38.52
2023-02-07T21:14:33.094Z,38.21
2023-02-07T21:17:06.194Z,38.29
2023-02-07T21:19:35.376Z,38.35
2023-02-07T21:22:06.738Z,38.22
2023-02-07T21:24:35.294Z,38.31
2023-02-07T21:27:05.093Z,38.26
2023-02-07T21:29:34.101Z,38.31
2023-02-07T21:32:04.078Z,38.28
2023-02-07T21:34:31.950Z,38.21
2023-02-07T21:36:59.790Z,38.55
2023-02-07T21:39:32.045Z,38.33
2023-02-07T21:42:00.135Z,38.42
2023-02-07T21:44:29.631Z,38.50
2023-02-07T21:46:57.652Z,38.56
2023-02-07T21:49:27.415Z,38.69
2023-02-07T21:52:13.480Z,38.47
2023-02-07T21:54:45.825Z,38.35
2023-02-07T21:57:13.726Z,38.30
2023-02-07T21:59:42.503Z,38.29
2023-02-07T22:02:11.853Z,38.42
2023-02-07T22:04:39.799Z,38.32
2023-02-07T22:07:08.915Z,38.33
2023-02-07T22:09:37.486Z,38.38
2023-02-07T22:12:16.006Z,38.29
2023-02-07T22:14:44.080Z,38.51
2023-02-07T22:17:14.726Z,38.60
2023-02-07T22:19:42.700Z,38.59
2023-02-07T22:22:10.580Z,38.83
2023-02-07T22:24:47.670Z,38.66
2023-02-07T22:27:17.210Z,38.29
2023-02-07T22:29:45.120Z,38.40
2023-02-07T22:32:12.849Z,38.50
2023-02-07T22:34:42.651Z,38.41
2023-02-07T22:37:10.535Z,38.35
2023-02-07T22:39:38.333Z,38.56
2023-02-07T22:42:06.360Z,38.52
2023-02-07T22:44:35.593Z,38.43
2023-02-07T22:47:03.364Z,38.49
2023-02-07T22:49:31.152Z,38.76
2023-02-07T22:51:58.976Z,38.67
2023-02-07T22:54:26.868Z,38.78
2023-02-07T22:56:59.036Z,38.60
2023-02-07T22:59:26.848Z,38.65
2023-02-07T23:01:59.165Z,38.51
2023-02-07T23:04:27.296Z,38.77
2023-02-07T23:06:55.204Z,38.79
2023-02-07T23:09:23.211Z,38.80
2023-02-07T23:11:50.967Z,38.85
2023-02-07T23:14:20.695Z,38.86
2023-02-07T23:16:48.661Z,38.98
2023-02-07T23:19:18.783Z,38.96
2023-02-07T23:21:46.553Z,38.97
2023-02-07T23:24:14.463Z,39.13
2023-02-07T23:26:42.388Z,39.15
2023-02-07T23:29:10.330Z,38.86
2023-02-07T23:31:38.100Z,38.87
2023-02-07T23:34:06.018Z,39.00
2023-02-07T23:36:35.211Z,38.94
2023-02-07T23:39:03.182Z,39.06
2023-02-07T23:41:31.025Z,38.90
2023-02-07T23:44:00.305Z,39.14
2023-02-07T23:46:29.186Z,38.99
2023-02-07T23:48:57.189Z,38.92
2023-02-07T23:51:25.503Z,39.10
2023-02-07T23:53:54.921Z,38.97
2023-02-07T23:56:24.202Z,38.79
2023-02-07T23:58:52.968Z,39.22
